Time;durP1;ratioP1;P1;durP2;ratioP2;P2;SDS_P1;SDS_P2;PMS_P1;PMS_P2;Temp;Humidity;BMP_temperature;BMP_pressure;BME280_temperature;BME280_humidity;BME280_pressure;Samples;Min_cycle;Max_cycle;Signal;HPM_P1;HPM_P2
2023/06/15 00:02:04;;;;;;;;;;;;;;;25.89;42.16;101729.41;5139531;28;19919;-50
2023/06/15 00:04:29;;;;;;;;;;;;;;;25.77;42.13;101727.81;5141404;28;20143;-49
2023/06/15 00:06:55;;;;;;;;;;;;;;;25.71;42.34;101733.56;5142274;28;19919;-50
2023/06/15 00:09:21;;;;;;;;;;;;;;;25.65;42.57;101729.22;5138672;28;19931;-48
2023/06/15 00:11:47;;;;;;;;;;;;;;;25.52;42.96;101731.41;5140308;28;19947;-51
2023/06/15 00:14:12;;;;;;;;;;;;;;;25.57;43.26;101734.13;5142984;28;19916;-50
2023/06/15 00:16:41;;;;;;;;;;;;;;;25.47;44.14;101734.16;5143158;28;19923;-50
2023/06/15 00:19:09;;;;;;;;;;;;;;;25.58;43.61;101733.03;5144328;27;19943;-49
2023/06/15 00:21:40;;;;;;;;;;;;;;;25.34;44.44;101735.50;5143417;27;19920;-50
2023/06/15 00:24:06;;;;;;;;;;;;;;;25.56;44.05;101737.16;5146940;27;19915;-54
2023/06/15 00:26:32;;;;;;;;;;;;;;;25.41;43.90;101736.03;5147595;27;19936;-48
2023/06/15 00:28:57;;;;;;;;;;;;;;;25.18;44.45;101737.41;5148590;27;19915;-53
2023/06/15 00:31:23;;;;;;;;;;;;;;;25.19;44.22;101733.59;5145042;27;19943;-50
2023/06/15 00:33:48;;;;;;;;;;;;;;;25.12;44.22;101733.00;5146735;27;19927;-51
2023/06/15 00:36:17;;;;;;;;;;;;;;;25.04;44.61;101728.94;5146257;27;19915;-53
2023/06/15 00:38:43;;;;;;;;;;;;;;;24.95;44.71;101736.00;5141823;27;19934;-51
2023/06/15 00:41:08;;;;;;;;;;;;;;;24.87;44.94;101737.38;5138748;27;19920;-54
2023/06/15 00:43:35;;;;;;;;;;;;;;;24.86;45.33;101736.56;5137018;28;19967;-53
2023/06/15 00:46:02;;;;;;;;;;;;;;;24.87;45.67;101737.38;5138993;27;19926;-54
2023/06/15 00:48:29;;;;;;;;;;;;;;;24.76;46.10;101736.53;5137082;28;19915;-54
2023/06/15 00:50:55;;;;;;;;;;;;;;;24.71;46.79;101736.47;5136869;28;19916;-56
2023/06/15 00:53:21;;;;;;;;;;;;;;;24.71;47.01;101740.06;5137938;27;19919;-50
2023/06/15 00:55:48;;;;;;;;;;;;;;;24.66;47.37;101740.03;5120036;28;19916;-54
2023/06/15 00:58:14;;;;;;;;;;;;;;;24.56;47.73;101740.81;5136807;28;19920;-54
2023/06/15 01:00:40;;;;;;;;;;;;;;;24.59;48.14;101742.19;5136426;28;19920;-54
2023/06/15 01:03:06;;;;;;;;;;;;;;;24.56;48.35;101748.19;5137191;27;19919;-51
2023/06/15 01:05:35;;;;;;;;;;;;;;;24.44;48.68;101751.97;5136106;27;19916;-52
2023/06/15 01:08:04;;;;;;;;;;;;;;;24.48;49.09;101747.63;5135604;28;19916;-53
2023/06/15 01:10:32;;;;;;;;;;;;;;;24.44;49.59;101748.44;5137356;27;19983;-56
2023/06/15 01:12:59;;;;;;;;;;;;;;;24.47;50.15;101746.00;5135651;27;19915;-55
2023/06/15 01:15:24;;;;;;;;;;;;;;;24.37;50.99;101743.22;5134940;28;19916;-54
2023/06/15 01:17:53;;;;;;;;;;;;;;;24.43;50.93;101747.59;5135667;28;19920;-53
2023/06/15 01:20:24;;;;;;;;;;;;;;;24.33;51.59;101744.84;5137619;27;19915;-51
2023/06/15 01:22:55;;;;;;;;;;;;;;;24.33;51.56;101750.31;5139284;27;19927;-51
2023/06/15 01:25:40;;;;;;;;;;;;;;;24.27;52.16;101741.25;5142524;27;19923;-52
2023/06/15 01:28:09;;;;;;;;;;;;;;;24.23;52.60;101742.88;5139865;27;19920;-52
2023/06/15 01:30:42;;;;;;;;;;;;;;;24.19;53.14;101742.56;5138065;27;19915;-53
2023/06/15 01:33:08;;;;;;;;;;;;;;;24.16;54.05;101747.78;5138528;27;19927;-53
2023/06/15 01:35:34;;;;;;;;;;;;;;;24.08;54.87;101748.25;5142922;27;19916;-52
2023/06/15 01:37:59;;;;;;;;;;;;;;;23.89;55.74;101741.31;5136590;27;19954;-52
2023/06/15 01:40:25;;;;;;;;;;;;;;;23.80;57.16;101744.78;5141474;27;19976;-52
2023/06/15 01:42:51;;;;;;;;;;;;;;;23.84;57.12;101752.19;5145627;27;19935;-55
2023/06/15 01:45:17;;;;;;;;;;;;;;;23.82;57.33;101746.19;5140562;27;19954;-53
2023/06/15 01:47:43;;;;;;;;;;;;;;;23.74;58.61;101750.22;5147871;27;19923;-49
2023/06/15 01:50:10;;;;;;;;;;;;;;;23.67;60.04;101746.06;5140020;27;19923;-53
2023/06/15 01:52:35;;;;;;;;;;;;;;;23.64;61.13;101747.41;5133923;28;19922;-49
2023/06/15 01:55:02;;;;;;;;;;;;;;;23.70;61.88;101753.72;5137135;27;19915;-55
2023/06/15 01:57:27;;;;;;;;;;;;;;;23.70;62.74;101742.81;5138459;27;19991;-51
2023/06/15 01:59:54;;;;;;;;;;;;;;;23.65;64.39;101750.97;5137275;27;19923;-50
2023/06/15 02:02:22;;;;;;;;;;;;;;;23.54;66.00;101753.63;5139489;27;19926;-48
2023/06/15 02:04:49;;;;;;;;;;;;;;;23.52;67.35;101747.59;5137740;27;19938;-51
2023/06/15 02:07:14;;;;;;;;;;;;;;;23.53;68.30;101759.34;5143323;27;19915;-49
2023/06/15 02:09:40;;;;;;;;;;;;;;;23.46;70.11;101748.66;5138606;27;19983;-51
2023/06/15 02:12:07;;;;;;;;;;;;;;;23.54;70.55;101752.81;5140862;27;19994;-49
2023/06/15 02:14:32;;;;;;;;;;;;;;;23.49;71.51;101750.84;5139177;27;19915;-47
2023/06/15 02:16:59;;;;;;;;;;;;;;;23.41;73.17;101751.34;5145544;27;19915;-48
2023/06/15 02:19:24;;;;;;;;;;;;;;;23.35;74.94;101747.72;5144431;27;19978;-49
2023/06/15 02:21:50;;;;;;;;;;;;;;;23.30;75.81;101744.97;5140251;27;19930;-50
2023/06/15 02:24:16;;;;;;;;;;;;;;;23.37;75.98;101755.69;5143720;27;19936;-51
2023/06/15 02:26:42;;;;;;;;;;;;;;;23.24;77.67;101749.53;5138502;27;19916;-53
2023/06/15 02:29:08;;;;;;;;;;;;;;;23.41;76.85;101746.72;5144648;27;19965;-53
2023/06/15 02:31:33;;;;;;;;;;;;;;;23.28;77.83;101756.13;5144358;27;19939;-50
2023/06/15 02:33:59;;;;;;;;;;;;;;;23.28;78.98;101752.59;5145648;27;19923;-54
2023/06/15 02:36:24;;;;;;;;;;;;;;;23.25;79.45;101753.94;5143950;27;19916;-50
2023/06/15 02:38:50;;;;;;;;;;;;;;;23.23;80.21;101756.06;5143599;27;19920;-50
2023/06/15 02:41:17;;;;;;;;;;;;;;;23.24;80.56;101759.63;5140452;27;19919;-51
2023/06/15 02:43:42;;;;;;;;;;;;;;;23.19;81.31;101758.50;5143975;27;19923;-52
2023/06/15 02:46:08;;;;;;;;;;;;;;;23.19;81.94;101758.50;5137298;27;19937;-53
2023/06/15 02:48:34;;;;;;;;;;;;;;;23.39;80.13;101762.50;5140947;27;19915;-52
2023/06/15 02:51:01;;;;;;;;;;;;;;;23.32;80.90;101764.63;5147500;27;20448;-50
2023/06/15 02:53:27;;;;;;;;;;;;;;;23.26;81.82;101765.69;5138365;27;19915;-54
2023/06/15 02:55:57;;;;;;;;;;;;;;;23.18;82.76;101758.75;5138346;27;19916;-53
2023/06/15 02:58:24;;;;;;;;;;;;;;;22.97;85.15;101766.72;5136329;27;19972;-53
2023/06/15 03:01:15;;;;;;;;;;;;;;;22.95;86.07;101763.44;5137469;27;19938;-51
2023/06/15 03:03:51;;;;;;;;;;;;;;;22.95;86.62;101762.59;5136031;27;19962;-52
2023/06/15 03:06:18;;;;;;;;;;;;;;;23.11;86.07;101764.41;5144116;27;19916;-52
2023/06/15 03:08:44;;;;;;;;;;;;;;;23.06;86.39;101767.91;5136066;28;19922;-53
2023/06/15 03:11:23;;;;;;;;;;;;;;;23.06;86.02;101767.09;5138555;27;19920;-54
2023/06/15 03:13:49;;;;;;;;;;;;;;;23.08;86.14;101764.94;5137205;28;19975;-50
2023/06/15 03:16:15;;;;;;;;;;;;;;;22.86;88.02;101760.34;5143833;28;19987;-53
2023/06/15 03:18:43;;;;;;;;;;;;;;;23.02;88.38;101765.97;5137961;28;19916;-51
2023/06/15 03:21:09;;;;;;;;;;;;;;;23.09;87.86;101772.03;5136934;28;19920;-55
2023/06/15 03:23:37;;;;;;;;;;;;;;;22.99;89.25;101770.03;5137445;28;19939;-54
2023/06/15 03:26:06;;;;;;;;;;;;;;;23.13;87.83;101766.88;5143383;28;19911;-52
2023/06/15 03:28:37;;;;;;;;;;;;;;;23.01;89.35;101769.78;5140845;28;19937;-47
2023/06/15 03:31:05;;;;;;;;;;;;;;;23.11;89.65;101763.59;5143044;28;19924;-52
2023/06/15 03:33:31;;;;;;;;;;;;;;;22.97;91.03;101764.00;5144011;28;19915;-51
2023/06/15 03:35:57;;;;;;;;;;;;;;;22.86;92.33;101768.53;5144177;28;19969;-52
2023/06/15 03:38:23;;;;;;;;;;;;;;;23.03;91.14;101773.06;5174082;27;19984;-50
2023/06/15 03:40:49;;;;;;;;;;;;;;;23.12;90.66;101766.06;5140825;28;19947;-54
2023/06/15 03:43:15;;;;;;;;;;;;;;;23.11;90.37;101772.59;5141778;28;19915;-52
2023/06/15 03:45:42;;;;;;;;;;;;;;;23.04;92.06;101772.78;5136872;28;19951;-52
2023/06/15 03:48:08;;;;;;;;;;;;;;;23.10;91.93;101768.22;5140027;28;19916;-51
2023/06/15 03:50:34;;;;;;;;;;;;;;;23.05;92.04;101774.44;5135002;28;19923;-52
2023/06/15 03:53:00;;;;;;;;;;;;;;;23.22;91.20;101772.72;5139415;28;19976;-54
2023/06/15 03:55:26;;;;;;;;;;;;;;;23.29;89.77;101763.22;5143309;27;19915;-49
2023/06/15 03:57:51;;;;;;;;;;;;;;;23.26;90.58;101769.22;5143109;27;19975;-52
2023/06/15 04:00:18;;;;;;;;;;;;;;;23.30;89.73;101766.81;5136556;28;19923;-53
2023/06/15 04:02:46;;;;;;;;;;;;;;;23.34;89.59;101768.75;5136456;27;19920;-53
2023/06/15 04:05:13;;;;;;;;;;;;;;;23.36;89.34;101765.75;5136708;28;19915;-53
2023/06/15 04:07:39;;;;;;;;;;;;;;;23.42;89.36;101763.91;5142065;27;19951;-52
2023/06/15 04:10:06;;;;;;;;;;;;;;;23.47;88.84;101772.13;5143050;27;19916;-50
2023/06/15 04:12:32;;;;;;;;;;;;;;;23.41;89.46;101771.28;5135840;28;19919;-52
2023/06/15 04:14:57;;;;;;;;;;;;;;;23.45;89.19;101774.28;5137067;28;19938;-51
2023/06/15 04:17:23;;;;;;;;;;;;;;;23.49;88.83;101776.25;5140240;27;20010;-51
2023/06/15 04:19:49;;;;;;;;;;;;;;;23.56;88.57;101772.47;5139441;27;19916;-52
2023/06/15 04:22:14;;;;;;;;;;;;;;;23.55;88.40;101773.56;5141385;27;19927;-51
2023/06/15 04:24:40;;;;;;;;;;;;;;;23.52;89.07;101783.06;5137003;28;19927;-52
2023/06/15 04:27:06;;;;;;;;;;;;;;;23.49;89.49;101780.88;5144863;27;19979;-52
2023/06/15 04:29:33;;;;;;;;;;;;;;;23.50;89.87;101787.97;5136917;28;19954;-53
2023/06/15 04:31:58;;;;;;;;;;;;;;;23.49;90.49;101786.34;5139079;27;19923;-52
2023/06/15 04:34:29;;;;;;;;;;;;;;;23.43;90.86;101787.38;5136820;27;19926;-50
2023/06/15 04:36:56;;;;;;;;;;;;;;;23.42;91.52;101786.56;5142053;27;19916;-50
2023/06/15 04:39:28;;;;;;;;;;;;;;;23.56;90.25;101791.59;5143224;27;19927;-53
2023/06/15 04:41:58;;;;;;;;;;;;;;;23.49;90.62;101794.53;5142584;27;19963;-54
2023/06/15 04:44:24;;;;;;;;;;;;;;;23.60;90.04;101790.81;5146318;27;19915;-50
2023/06/15 04:46:49;;;;;;;;;;;;;;;23.70;89.25;101797.41;5138317;27;19922;-51
2023/06/15 04:49:14;;;;;;;;;;;;;;;23.67;89.17;101796.06;5144623;27;19979;-54
2023/06/15 04:51:40;;;;;;;;;;;;;;;23.65;89.87;101797.38;5148069;27;19978;-52
2023/06/15 04:54:07;;;;;;;;;;;;;;;23.60;89.57;101798.16;5144497;27;19975;-52
2023/06/15 04:56:33;;;;;;;;;;;;;;;23.51;91.22;101802.47;5139664;27;19915;-49
2023/06/15 04:58:58;;;;;;;;;;;;;;;23.46;91.89;101811.41;5143853;27;19996;-53
2023/06/15 05:01:25;;;;;;;;;;;;;;;23.72;90.24;101811.63;5140474;27;19920;-52
2023/06/15 05:03:53;;;;;;;;;;;;;;;23.84;88.80;101814.19;5144300;27;19927;-50
2023/06/15 05:06:18;;;;;;;;;;;;;;;23.83;88.47;101818.84;5140600;27;19915;-52
2023/06/15 05:08:44;;;;;;;;;;;;;;;23.86;88.50;101815.59;5145083;27;19962;-54
2023/06/15 05:11:09;;;;;;;;;;;;;;;23.97;87.87;101823.84;5142547;27;19927;-54
2023/06/15 05:13:35;;;;;;;;;;;;;;;23.77;89.79;101822.63;5141853;27;19916;-54
2023/06/15 05:16:01;;;;;;;;;;;;;;;23.87;89.33;101822.69;5144297;27;19938;-53
2023/06/15 05:18:29;;;;;;;;;;;;;;;23.83;89.62;101821.56;5148189;27;19916;-53
2023/06/15 05:20:55;;;;;;;;;;;;;;;23.90;89.26;101824.88;5145932;27;19915;-52
2023/06/15 05:23:21;;;;;;;;;;;;;;;23.90;89.58;101819.44;5139735;27;19915;-49
2023/06/15 05:25:48;;;;;;;;;;;;;;;23.92;89.91;101819.19;5143255;27;19915;-50
2023/06/15 05:28:13;;;;;;;;;;;;;;;23.87;89.85;101822.69;5142144;27;19934;-49
2023/06/15 05:30:39;;;;;;;;;;;;;;;24.10;88.29;101819.84;5139237;27;19924;-50
2023/06/15 05:33:05;;;;;;;;;;;;;;;24.13;87.76;101820.16;5138414;27;19915;-52
2023/06/15 05:35:30;;;;;;;;;;;;;;;24.20;87.93;101814.47;5140549;27;19912;-53
2023/06/15 05:37:56;;;;;;;;;;;;;;;24.25;87.70;101819.16;5140471;27;19915;-55
2023/06/15 05:40:22;;;;;;;;;;;;;;;24.30;86.85;101824.63;5142122;27;19930;-50
2023/06/15 05:42:49;;;;;;;;;;;;;;;24.30;86.24;101816.44;5143467;27;20298;-52
2023/06/15 05:45:14;;;;;;;;;;;;;;;24.28;86.50;101829.53;5135661;27;19936;-47
2023/06/15 05:47:40;;;;;;;;;;;;;;;24.45;84.40;101823.88;5136151;27;19969;-51
2023/06/15 05:50:06;;;;;;;;;;;;;;;24.52;85.09;101824.47;5138040;27;19964;-48
2023/06/15 05:52:33;;;;;;;;;;;;;;;24.52;86.01;101827.19;5134381;28;19915;-51
2023/06/15 05:54:59;;;;;;;;;;;;;;;24.58;85.73;101828.06;5145061;27;19918;-50
2023/06/15 05:57:24;;;;;;;;;;;;;;;24.60;85.21;101831.34;5134091;27;19970;-50
2023/06/15 05:59:52;;;;;;;;;;;;;;;24.62;85.12;101834.63;5137001;27;19916;-52
2023/06/15 06:02:18;;;;;;;;;;;;;;;24.79;84.75;101834.44;5136748;27;19941;-53
2023/06/15 06:04:44;;;;;;;;;;;;;;;24.90;83.94;101833.41;5138271;27;19915;-52
2023/06/15 06:07:10;;;;;;;;;;;;;;;24.89;84.43;101839.13;5132595;27;19957;-52
2023/06/15 06:09:37;;;;;;;;;;;;;;;24.97;84.38;101840.53;5142973;27;19936;-49
2023/06/15 06:12:04;;;;;;;;;;;;;;;25.01;84.34;101834.25;5141091;27;19920;-51
2023/06/15 06:14:31;;;;;;;;;;;;;;;25.11;82.33;101838.09;5134540;28;19962;-50
2023/06/15 06:16:57;;;;;;;;;;;;;;;25.23;81.33;101837.84;5133040;28;19922;-51
2023/06/15 06:19:23;;;;;;;;;;;;;;;25.27;79.87;101842.53;5139042;27;19955;-51
2023/06/15 06:21:49;;;;;;;;;;;;;;;25.17;81.15;101839.78;5133740;27;19920;-49
2023/06/15 06:24:15;;;;;;;;;;;;;;;25.46;77.89;101836.53;5135610;27;19916;-50
2023/06/15 06:26:43;;;;;;;;;;;;;;;25.44;75.21;101838.72;5133546;28;19965;-52
2023/06/15 06:29:09;;;;;;;;;;;;;;;25.74;74.88;101839.84;5137759;27;19920;-50
2023/06/15 06:31:35;;;;;;;;;;;;;;;25.77;73.23;101837.38;5132797;27;19916;-55
2023/06/15 06:34:00;;;;;;;;;;;;;;;25.88;72.05;101840.94;5137409;27;19955;-54
2023/06/15 06:36:26;;;;;;;;;;;;;;;25.92;69.74;101833.81;5132984;28;19922;-51
2023/06/15 06:38:52;;;;;;;;;;;;;;;26.06;69.99;101844.19;5140997;27;19927;-50
2023/06/15 06:41:17;;;;;;;;;;;;;;;26.13;70.78;101842.00;5142728;27;19920;-53
2023/06/15 06:43:43;;;;;;;;;;;;;;;26.09;69.78;101845.56;5137559;27;20023;-50
2023/06/15 06:46:09;;;;;;;;;;;;;;;26.07;71.03;101845.84;5141758;27;19916;-54
2023/06/15 06:48:35;;;;;;;;;;;;;;;26.23;70.18;101848.59;5143796;27;19919;-50
2023/06/15 06:51:00;;;;;;;;;;;;;;;26.28;69.65;101852.13;5139968;27;19962;-53
2023/06/15 06:53:25;;;;;;;;;;;;;;;26.38;69.34;101850.47;5138973;27;19928;-52
2023/06/15 06:55:51;;;;;;;;;;;;;;;26.39;68.79;101847.44;5138470;27;20373;-52
2023/06/15 06:58:16;;;;;;;;;;;;;;;26.46;67.51;101858.13;5139628;27;19915;-53
2023/06/15 07:00:42;;;;;;;;;;;;;;;26.35;67.89;101846.38;5136550;27;19916;-51
2023/06/15 07:03:07;;;;;;;;;;;;;;;26.45;64.72;101853.75;5138182;27;19977;-48
2023/06/15 07:05:33;;;;;;;;;;;;;;;26.72;65.66;101847.88;5136115;27;19915;-54
2023/06/15 07:07:59;;;;;;;;;;;;;;;26.74;67.05;101859.38;5137196;28;19915;-52
2023/06/15 07:10:24;;;;;;;;;;;;;;;26.83;66.68;101856.88;5139771;28;19916;-50
2023/06/15 07:12:54;;;;;;;;;;;;;;;26.96;63.25;101860.97;5139057;27;20671;-51
2023/06/15 07:15:20;;;;;;;;;;;;;;;27.19;61.56;101858.63;5141558;27;19987;-51
2023/06/15 07:17:46;;;;;;;;;;;;;;;27.31;62.87;101855.53;5134772;28;19915;-51
2023/06/15 07:20:11;;;;;;;;;;;;;;;27.38;62.33;101860.72;5138365;28;19923;-51
2023/06/15 07:22:37;;;;;;;;;;;;;;;27.11;57.29;101859.25;5136183;28;19924;-51
2023/06/15 07:25:02;;;;;;;;;;;;;;;27.23;59.98;101858.91;5136631;28;20009;-54
2023/06/15 07:27:28;;;;;;;;;;;;;;;27.45;60.32;101864.78;5136440;28;19916;-55
2023/06/15 07:29:53;;;;;;;;;;;;;;;27.52;58.36;101855.41;5144663;27;19930;-54
2023/06/15 07:32:18;;;;;;;;;;;;;;;27.70;58.57;101856.69;5142253;27;19951;-56
2023/06/15 07:34:44;;;;;;;;;;;;;;;27.82;57.49;101856.28;5140242;27;19916;-48
2023/06/15 07:37:10;;;;;;;;;;;;;;;27.59;57.61;101855.94;5138104;27;19975;-53
2023/06/15 07:39:36;;;;;;;;;;;;;;;27.62;56.77;101855.34;5142981;27;19923;-53
2023/06/15 07:42:02;;;;;;;;;;;;;;;27.77;56.23;101857.16;5144324;27;19979;-55
2023/06/15 07:44:28;;;;;;;;;;;;;;;27.89;55.97;101857.56;5140421;27;19915;-52
2023/06/15 07:46:53;;;;;;;;;;;;;;;27.89;55.26;101854.81;5141278;27;20092;-52
2023/06/15 07:49:18;;;;;;;;;;;;;;;28.00;55.50;101855.56;5141729;27;19915;-53
2023/06/15 07:51:45;;;;;;;;;;;;;;;28.03;54.73;101859.66;5145174;27;19937;-50
2023/06/15 07:54:10;;;;;;;;;;;;;;;28.10;54.68;101862.88;5139964;27;19915;-52
2023/06/15 07:56:36;;;;;;;;;;;;;;;28.18;54.10;101859.53;5142274;27;19915;-49
2023/06/15 07:59:02;;;;;;;;;;;;;;;28.44;53.57;101859.25;5140565;27;19992;-53
2023/06/15 08:01:27;;;;;;;;;;;;;;;28.48;52.65;101862.22;5146589;27;19943;-51
2023/06/15 08:03:53;;;;;;;;;;;;;;;28.44;52.15;101856.50;5146377;27;19922;-54
2023/06/15 08:06:18;;;;;;;;;;;;;;;28.38;52.46;101849.44;5142465;27;19919;-53
2023/06/15 08:08:45;;;;;;;;;;;;;;;28.48;51.95;101856.72;5147844;27;19982;-52
2023/06/15 08:11:10;;;;;;;;;;;;;;;28.53;50.60;101856.69;5145713;27;19955;-52
2023/06/15 08:13:37;;;;;;;;;;;;;;;28.75;49.52;101863.56;5143797;27;19941;-48
2023/06/15 08:16:03;;;;;;;;;;;;;;;28.62;49.40;101857.66;5138598;27;19998;-52
2023/06/15 08:18:29;;;;;;;;;;;;;;;28.88;48.96;101851.06;5150866;27;19970;-50
2023/06/15 08:20:55;;;;;;;;;;;;;;;28.75;48.71;101847.88;5142577;27;19938;-53
2023/06/15 08:23:21;;;;;;;;;;;;;;;28.99;48.18;101858.03;5143914;27;19935;-49
2023/06/15 08:25:47;;;;;;;;;;;;;;;29.11;47.13;101865.06;5141482;27;19924;-52
2023/06/15 08:28:13;;;;;;;;;;;;;;;29.02;47.81;101859.38;5141078;27;19994;-53
2023/06/15 08:30:39;;;;;;;;;;;;;;;29.30;46.94;101867.78;5145344;27;19915;-52
2023/06/15 08:33:05;;;;;;;;;;;;;;;29.37;46.33;101867.41;5141738;27;19922;-53
2023/06/15 08:35:31;;;;;;;;;;;;;;;29.42;44.37;101870.97;5140138;27;19924;-51
2023/06/15 08:37:56;;;;;;;;;;;;;;;29.39;42.11;101871.50;5145681;27;19915;-51
2023/06/15 08:40:22;;;;;;;;;;;;;;;29.43;41.99;101871.75;5143393;27;19922;-50
2023/06/15 08:42:49;;;;;;;;;;;;;;;29.58;40.54;101870.69;5138279;27;19924;-52
2023/06/15 08:45:15;;;;;;;;;;;;;;;29.60;39.82;101862.94;5139723;27;19927;-51
2023/06/15 08:47:42;;;;;;;;;;;;;;;29.82;39.80;101867.81;5141507;27;19947;-50
2023/06/15 08:50:08;;;;;;;;;;;;;;;29.89;39.03;101873.75;5141941;27;19926;-55
2023/06/15 08:52:34;;;;;;;;;;;;;;;29.99;39.85;101867.22;5145348;27;19935;-54
2023/06/15 08:55:01;;;;;;;;;;;;;;;30.07;40.31;101865.75;5144486;27;19916;-55
2023/06/15 08:57:27;;;;;;;;;;;;;;;30.23;40.88;101869.03;5145264;27;19934;-52
2023/06/15 08:59:53;;;;;;;;;;;;;;;30.25;40.78;101866.78;5144063;27;19939;-56
2023/06/15 09:02:22;;;;;;;;;;;;;;;30.32;40.71;101864.44;5141646;27;19930;-56
2023/06/15 09:04:49;;;;;;;;;;;;;;;30.50;41.26;101861.88;5141717;27;19915;-55
2023/06/15 09:07:14;;;;;;;;;;;;;;;30.48;42.04;101866.88;5145183;27;19915;-53
2023/06/15 09:09:59;;;;;;;;;;;;;;;30.46;42.29;101864.44;5145701;27;19934;-54
2023/06/15 09:12:25;;;;;;;;;;;;;;;30.43;42.44;101859.53;5140745;27;19962;-52
2023/06/15 09:14:50;;;;;;;;;;;;;;;30.46;41.85;101864.44;5143921;27;19915;-54
2023/06/15 09:17:19;;;;;;;;;;;;;;;30.69;40.90;101866.50;5145646;27;19975;-53
2023/06/15 09:19:45;;;;;;;;;;;;;;;30.87;40.93;101861.97;5145941;27;19992;-53
2023/06/15 09:22:11;;;;;;;;;;;;;;;31.08;40.52;101867.03;5144312;27;19924;-55
2023/06/15 09:24:38;;;;;;;;;;;;;;;31.07;41.57;101862.63;5146005;27;20044;-56
2023/06/15 09:27:13;;;;;;;;;;;;;;;31.17;41.74;101865.97;5142416;27;19982;-56
2023/06/15 09:29:39;;;;;;;;;;;;;;;31.23;41.13;101863.94;5139213;27;19904;-52
2023/06/15 09:32:05;;;;;;;;;;;;;;;31.34;39.79;101867.28;5143244;27;19924;-55
2023/06/15 09:34:31;;;;;;;;;;;;;;;31.69;39.66;101863.94;5142607;27;19916;-52
2023/06/15 09:36:56;;;;;;;;;;;;;;;31.92;38.70;101863.94;5144488;27;19912;-55
2023/06/15 09:39:25;;;;;;;;;;;;;;;31.81;38.01;101864.19;5143549;27;19916;-51
2023/06/15 09:41:51;;;;;;;;;;;;;;;32.13;37.25;101861.44;5141404;27;19927;-56
2023/06/15 09:44:18;;;;;;;;;;;;;;;32.58;37.30;101860.47;5147125;27;19915;-53
2023/06/15 09:46:47;;;;;;;;;;;;;;;32.42;38.01;101868.44;5137799;27;19915;-54
2023/06/15 09:49:23;;;;;;;;;;;;;;;33.17;36.78;101864.78;5145766;27;19915;-52
2023/06/15 09:51:50;;;;;;;;;;;;;;;33.92;35.21;101862.94;5143278;27;19916;-52
2023/06/15 09:54:22;;;;;;;;;;;;;;;34.50;33.12;101860.59;5144479;27;19941;-52
2023/06/15 09:56:48;;;;;;;;;;;;;;;35.22;32.47;101868.06;5142368;27;19915;-53
2023/06/15 09:59:14;;;;;;;;;;;;;;;35.81;30.93;101868.16;5142475;27;19916;-54
2023/06/15 10:01:41;;;;;;;;;;;;;;;36.45;29.39;101871.47;5144294;27;19950;-52
2023/06/15 10:04:07;;;;;;;;;;;;;;;36.87;28.40;101867.59;5144402;27;19923;-51
2023/06/15 10:06:33;;;;;;;;;;;;;;;37.82;27.29;101871.03;5140385;27;19947;-53
2023/06/15 10:09:00;;;;;;;;;;;;;;;38.30;26.74;101876.63;5145175;27;19911;-51
2023/06/15 10:11:26;;;;;;;;;;;;;;;39.40;25.60;101880.59;5144184;27;19935;-52
2023/06/15 10:13:57;;;;;;;;;;;;;;;39.44;25.92;101875.84;5142441;27;19919;-53
2023/06/15 10:16:23;;;;;;;;;;;;;;;38.04;26.79;101869.59;5145707;27;19911;-51
2023/06/15 10:18:57;;;;;;;;;;;;;;;36.85;27.87;101867.13;5143593;27;19939;-53
2023/06/15 10:21:26;;;;;;;;;;;;;;;36.39;28.89;101868.09;5138798;27;19923;-53
2023/06/15 10:23:53;;;;;;;;;;;;;;;35.96;29.48;101858.31;5137200;27;19926;-53
2023/06/15 10:26:19;;;;;;;;;;;;;;;37.76;27.76;101866.91;5140662;27;19978;-53
2023/06/15 10:28:49;;;;;;;;;;;;;;;38.01;27.75;101870.31;5139004;27;19919;-52
2023/06/15 10:31:39;;;;;;;;;;;;;;;38.36;27.29;101872.38;5139257;27;19982;-52
2023/06/15 10:34:08;;;;;;;;;;;;;;;37.50;27.90;101866.22;5138763;27;19923;-51
2023/06/15 10:36:46;;;;;;;;;;;;;;;36.84;29.37;101868.28;5140644;27;19938;-52
2023/06/15 10:39:16;;;;;;;;;;;;;;;36.25;29.18;101870.44;5141504;27;19916;-53
2023/06/15 10:41:43;;;;;;;;;;;;;;;35.97;30.17;101859.94;5141994;27;19920;-53
2023/06/15 10:44:13;;;;;;;;;;;;;;;35.21;30.31;101851.75;5144626;27;20000;-51
2023/06/15 10:46:38;;;;;;;;;;;;;;;34.89;30.93;101857.72;5140816;27;20320;-55
2023/06/15 10:49:04;;;;;;;;;;;;;;;34.91;30.81;101866.50;5144025;27;19950;-53
2023/06/15 10:51:49;;;;;;;;;;;;;;;34.72;30.97;101862.22;5142761;27;19923;-56
2023/06/15 10:54:25;;;;;;;;;;;;;;;34.45;31.51;101858.78;5142933;27;19983;-53
2023/06/15 10:56:51;;;;;;;;;;;;;;;34.28;32.00;101856.91;5143201;27;19969;-53
2023/06/15 10:59:35;;;;;;;;;;;;;;;34.46;31.93;101845.69;5141361;27;19916;-54
2023/06/15 11:02:00;;;;;;;;;;;;;;;34.22;31.87;101854.66;5138643;27;19975;-52
2023/06/15 11:04:30;;;;;;;;;;;;;;;34.01;33.04;101849.84;5139183;27;19920;-55
2023/06/15 11:06:57;;;;;;;;;;;;;;;33.40;32.34;101850.75;5142513;27;19926;-54
2023/06/15 11:09:25;;;;;;;;;;;;;;;33.44;32.65;101848.97;5138683;27;19923;-51
2023/06/15 11:11:50;;;;;;;;;;;;;;;34.29;31.39;101846.63;5140271;27;19933;-53
2023/06/15 11:14:18;;;;;;;;;;;;;;;34.49;30.99;101852.59;5134916;27;20218;-55
2023/06/15 11:16:43;;;;;;;;;;;;;;;34.73;31.37;101849.16;5136591;28;19934;-56
2023/06/15 11:19:11;;;;;;;;;;;;;;;36.10;30.00;101869.97;5143451;28;19915;-54
2023/06/15 11:21:40;;;;;;;;;;;;;;;38.25;28.10;101862.91;5140141;28;19994;-52
2023/06/15 11:24:05;;;;;;;;;;;;;;;39.48;26.48;101862.78;5137928;28;20042;-53
2023/06/15 11:26:32;;;;;;;;;;;;;;;40.67;25.46;101869.47;5141166;28;19940;-54
2023/06/15 11:29:01;;;;;;;;;;;;;;;41.60;24.25;101873.75;5138697;28;19964;-51
2023/06/15 11:31:27;;;;;;;;;;;;;;;41.75;24.10;101866.28;5137460;28;19990;-56
2023/06/15 11:33:53;;;;;;;;;;;;;;;40.49;24.19;101865.59;5137867;28;19923;-55
2023/06/15 11:36:18;;;;;;;;;;;;;;;41.37;23.95;101859.91;5138449;27;19915;-52
2023/06/15 11:38:44;;;;;;;;;;;;;;;40.92;23.51;101871.81;5136768;28;19950;-53
2023/06/15 11:41:10;;;;;;;;;;;;;;;39.35;24.70;101864.06;5143090;28;19923;-52
2023/06/15 11:43:42;;;;;;;;;;;;;;;38.46;25.61;101854.28;5141578;28;19916;-52
2023/06/15 11:46:09;;;;;;;;;;;;;;;38.05;25.89;101854.47;5140689;28;19915;-53
2023/06/15 11:48:34;;;;;;;;;;;;;;;37.40;26.51;101850.00;5142118;28;19915;-54
2023/06/15 11:51:00;;;;;;;;;;;;;;;37.32;26.69;101840.63;5144376;28;19923;-54
2023/06/15 11:53:26;;;;;;;;;;;;;;;37.10;26.66;101830.84;5141869;28;19920;-54
2023/06/15 11:55:51;;;;;;;;;;;;;;;36.09;27.92;101832.16;5139381;28;19915;-54
2023/06/15 11:58:18;;;;;;;;;;;;;;;36.23;28.24;101831.81;5141419;28;19927;-53
2023/06/15 12:00:43;;;;;;;;;;;;;;;36.21;27.68;101831.34;5138666;28;19930;-55
2023/06/15 12:03:10;;;;;;;;;;;;;;;36.23;27.36;101836.59;5135731;28;19947;-53
2023/06/15 12:05:36;;;;;;;;;;;;;;;36.42;26.96;101833.19;5137362;28;19922;-55
2023/06/15 12:08:04;;;;;;;;;;;;;;;36.73;26.88;101823.38;5141843;28;19926;-55
2023/06/15 12:10:31;;;;;;;;;;;;;;;36.69;26.87;101831.66;5137126;28;19930;-53
2023/06/15 12:12:58;;;;;;;;;;;;;;;39.10;25.52;101830.84;5137278;28;19993;-56
2023/06/15 12:15:24;;;;;;;;;;;;;;;40.96;23.44;101836.19;5142415;27;19923;-53
2023/06/15 12:17:50;;;;;;;;;;;;;;;42.43;21.94;101834.25;5145733;27;19915;-55
2023/06/15 12:20:16;;;;;;;;;;;;;;;42.61;21.67;101842.78;5142992;27;19930;-55
2023/06/15 12:22:43;;;;;;;;;;;;;;;41.59;22.13;101832.03;5139617;27;19935;-54
2023/06/15 12:25:09;;;;;;;;;;;;;;;41.66;22.08;101832.13;5143169;27;19920;-54
2023/06/15 12:27:41;;;;;;;;;;;;;;;42.05;21.96;101834.44;5141092;27;19916;-54
2023/06/15 12:30:08;;;;;;;;;;;;;;;42.48;21.33;101827.50;5136963;27;19921;-50
2023/06/15 12:32:33;;;;;;;;;;;;;;;43.03;21.20;101831.31;5141303;27;19922;-54
2023/06/15 12:34:58;;;;;;;;;;;;;;;43.52;20.63;101831.81;5143523;27;19975;-53